sensor_id;sensor_type;location;lat;lon;timestamp;P1;durP1;ratioP1;P2;durP2;ratioP2
37299;SDS011;23184;51.902;12.836;2022-09-09T00:02:03;9.25;;;7.28;;
37299;SDS011;23184;51.902;12.836;2022-09-09T00:04:37;9.57;;;7.63;;
37299;SDS011;23184;51.902;12.836;2022-09-09T00:07:10;11.80;;;8.25;;
37299;SDS011;23184;51.902;12.836;2022-09-09T00:12:27;14.35;;;8.38;;
37299;SDS011;23184;51.902;12.836;2022-09-09T00:25:19;15.07;;;8.70;;
37299;SDS011;23184;51.902;12.836;2022-09-09T00:27:59;9.88;;;7.78;;
37299;SDS011;23184;51.902;12.836;2022-09-09T00:30:26;10.75;;;8.63;;
37299;SDS011;23184;51.902;12.836;2022-09-09T00:33:00;13.23;;;8.57;;
37299;SDS011;23184;51.902;12.836;2022-09-09T00:35:37;15.75;;;9.07;;
37299;SDS011;23184;51.902;12.836;2022-09-09T00:38:13;10.55;;;8.60;;
37299;SDS011;23184;51.902;12.836;2022-09-09T00:40:46;13.40;;;8.57;;
37299;SDS011;23184;51.902;12.836;2022-09-09T00:43:31;10.52;;;8.93;;
37299;SDS011;23184;51.902;12.836;2022-09-09T00:46:03;12.85;;;8.40;;
37299;SDS011;23184;51.902;12.836;2022-09-09T00:51:09;15.07;;;8.93;;
37299;SDS011;23184;51.902;12.836;2022-09-09T00:58:37;11.48;;;8.35;;
37299;SDS011;23184;51.902;12.836;2022-09-09T01:01:08;9.20;;;7.30;;
37299;SDS011;23184;51.902;12.836;2022-09-09T01:03:45;12.27;;;7.97;;
37299;SDS011;23184;51.902;12.836;2022-09-09T01:06:14;12.20;;;8.20;;
37299;SDS011;23184;51.902;12.836;2022-09-09T01:14:57;12.27;;;7.22;;
37299;SDS011;23184;51.902;12.836;2022-09-09T01:18:20;12.32;;;7.03;;
37299;SDS011;23184;51.902;12.836;2022-09-09T01:20:39;8.18;;;5.68;;
37299;SDS011;23184;51.902;12.836;2022-09-09T01:26:04;10.25;;;5.68;;
37299;SDS011;23184;51.902;12.836;2022-09-09T01:28:37;8.77;;;6.05;;
37299;SDS011;23184;51.902;12.836;2022-09-09T01:31:05;9.75;;;5.53;;
37299;SDS011;23184;51.902;12.836;2022-09-09T01:33:33;9.02;;;5.43;;
37299;SDS011;23184;51.902;12.836;2022-09-09T01:38:48;8.32;;;5.20;;
37299;SDS011;23184;51.902;12.836;2022-09-09T01:41:13;8.23;;;5.40;;
37299;SDS011;23184;51.902;12.836;2022-09-09T01:43:42;7.35;;;5.38;;
37299;SDS011;23184;51.902;12.836;2022-09-09T01:46:08;11.50;;;4.82;;
37299;SDS011;23184;51.902;12.836;2022-09-09T01:48:36;7.35;;;4.65;;
37299;SDS011;23184;51.902;12.836;2022-09-09T01:51:01;7.05;;;4.93;;
37299;SDS011;23184;51.902;12.836;2022-09-09T01:53:27;12.30;;;4.68;;
37299;SDS011;23184;51.902;12.836;2022-09-09T01:56:07;8.18;;;5.00;;
37299;SDS011;23184;51.902;12.836;2022-09-09T01:58:48;9.55;;;4.63;;
37299;SDS011;23184;51.902;12.836;2022-09-09T02:03:55;7.97;;;4.25;;
37299;SDS011;23184;51.902;12.836;2022-09-09T02:06:30;7.47;;;4.20;;
37299;SDS011;23184;51.902;12.836;2022-09-09T02:09:00;7.15;;;4.57;;
37299;SDS011;23184;51.902;12.836;2022-09-09T02:11:29;8.68;;;4.43;;
37299;SDS011;23184;51.902;12.836;2022-09-09T02:13:57;8.93;;;4.63;;
37299;SDS011;23184;51.902;12.836;2022-09-09T02:21:57;7.35;;;4.38;;
37299;SDS011;23184;51.902;12.836;2022-09-09T02:24:25;9.10;;;4.30;;
37299;SDS011;23184;51.902;12.836;2022-09-09T02:26:52;9.20;;;4.20;;
37299;SDS011;23184;51.902;12.836;2022-09-09T02:29:28;6.93;;;4.20;;
37299;SDS011;23184;51.902;12.836;2022-09-09T02:31:58;4.05;;;3.53;;
37299;SDS011;23184;51.902;12.836;2022-09-09T02:34:28;7.15;;;3.78;;
37299;SDS011;23184;51.902;12.836;2022-09-09T02:36:56;6.43;;;3.60;;
37299;SDS011;23184;51.902;12.836;2022-09-09T02:39:24;7.13;;;3.20;;
37299;SDS011;23184;51.902;12.836;2022-09-09T02:41:49;4.53;;;3.20;;
37299;SDS011;23184;51.902;12.836;2022-09-09T02:44:16;10.00;;;3.80;;
37299;SDS011;23184;51.902;12.836;2022-09-09T02:49:21;4.28;;;3.05;;
37299;SDS011;23184;51.902;12.836;2022-09-09T02:52:06;10.40;;;3.22;;
37299;SDS011;23184;51.902;12.836;2022-09-09T02:54:37;5.18;;;2.97;;
37299;SDS011;23184;51.902;12.836;2022-09-09T02:57:06;9.45;;;3.33;;
37299;SDS011;23184;51.902;12.836;2022-09-09T02:59:48;3.85;;;3.08;;
37299;SDS011;23184;51.902;12.836;2022-09-09T03:02:15;7.10;;;3.28;;
37299;SDS011;23184;51.902;12.836;2022-09-09T03:04:40;10.50;;;2.90;;
37299;SDS011;23184;51.902;12.836;2022-09-09T03:07:09;10.48;;;3.45;;
37299;SDS011;23184;51.902;12.836;2022-09-09T03:09:35;6.30;;;3.05;;
37299;SDS011;23184;51.902;12.836;2022-09-09T03:12:00;5.68;;;2.72;;
37299;SDS011;23184;51.902;12.836;2022-09-09T03:14:27;6.13;;;3.53;;
37299;SDS011;23184;51.902;12.836;2022-09-09T03:16:52;6.97;;;2.50;;
37299;SDS011;23184;51.902;12.836;2022-09-09T03:19:19;4.82;;;2.70;;
37299;SDS011;23184;51.902;12.836;2022-09-09T03:21:46;6.90;;;2.80;;
37299;SDS011;23184;51.902;12.836;2022-09-09T03:24:12;4.63;;;2.35;;
37299;SDS011;23184;51.902;12.836;2022-09-09T03:26:39;9.02;;;3.38;;
37299;SDS011;23184;51.902;12.836;2022-09-09T03:29:05;5.63;;;2.63;;
37299;SDS011;23184;51.902;12.836;2022-09-09T03:31:32;4.93;;;2.63;;
37299;SDS011;23184;51.902;12.836;2022-09-09T03:33:58;10.77;;;3.33;;
37299;SDS011;23184;51.902;12.836;2022-09-09T03:36:27;6.40;;;2.38;;
37299;SDS011;23184;51.902;12.836;2022-09-09T03:38:53;3.80;;;2.50;;
37299;SDS011;23184;51.902;12.836;2022-09-09T03:41:22;4.97;;;2.10;;
37299;SDS011;23184;51.902;12.836;2022-09-09T03:43:49;4.03;;;2.40;;
37299;SDS011;23184;51.902;12.836;2022-09-09T03:46:18;9.00;;;2.47;;
37299;SDS011;23184;51.902;12.836;2022-09-09T03:48:44;8.32;;;2.97;;
37299;SDS011;23184;51.902;12.836;2022-09-09T03:51:10;4.13;;;2.80;;
37299;SDS011;23184;51.902;12.836;2022-09-09T03:53:35;3.22;;;2.70;;
37299;SDS011;23184;51.902;12.836;2022-09-09T03:56:02;10.93;;;3.08;;
37299;SDS011;23184;51.902;12.836;2022-09-09T03:58:29;6.45;;;2.50;;
37299;SDS011;23184;51.902;12.836;2022-09-09T04:03:21;5.72;;;2.70;;
37299;SDS011;23184;51.902;12.836;2022-09-09T04:05:48;5.60;;;2.25;;
37299;SDS011;23184;51.902;12.836;2022-09-09T04:08:14;6.85;;;2.58;;
37299;SDS011;23184;51.902;12.836;2022-09-09T04:10:39;5.10;;;2.50;;
37299;SDS011;23184;51.902;12.836;2022-09-09T04:13:06;5.25;;;2.53;;
37299;SDS011;23184;51.902;12.836;2022-09-09T04:15:31;5.38;;;2.33;;
37299;SDS011;23184;51.902;12.836;2022-09-09T04:17:57;5.38;;;3.00;;
37299;SDS011;23184;51.902;12.836;2022-09-09T04:20:22;4.88;;;2.20;;
37299;SDS011;23184;51.902;12.836;2022-09-09T04:22:48;5.80;;;2.50;;
37299;SDS011;23184;51.902;12.836;2022-09-09T04:25:13;8.63;;;2.67;;
37299;SDS011;23184;51.902;12.836;2022-09-09T04:27:39;7.22;;;2.70;;
37299;SDS011;23184;51.902;12.836;2022-09-09T04:30:05;5.13;;;2.72;;
37299;SDS011;23184;51.902;12.836;2022-09-09T04:32:32;5.25;;;2.40;;
37299;SDS011;23184;51.902;12.836;2022-09-09T04:34:58;4.40;;;2.72;;
37299;SDS011;23184;51.902;12.836;2022-09-09T04:37:24;8.45;;;2.80;;
37299;SDS011;23184;51.902;12.836;2022-09-09T04:39:50;5.65;;;2.70;;
37299;SDS011;23184;51.902;12.836;2022-09-09T04:42:15;4.88;;;2.65;;
37299;SDS011;23184;51.902;12.836;2022-09-09T04:44:42;4.63;;;2.78;;
37299;SDS011;23184;51.902;12.836;2022-09-09T04:47:08;5.57;;;3.20;;
37299;SDS011;23184;51.902;12.836;2022-09-09T04:49:34;6.05;;;3.03;;
37299;SDS011;23184;51.902;12.836;2022-09-09T04:52:00;7.25;;;3.03;;
37299;SDS011;23184;51.902;12.836;2022-09-09T04:54:26;8.10;;;3.08;;
37299;SDS011;23184;51.902;12.836;2022-09-09T04:56:52;5.43;;;3.22;;
37299;SDS011;23184;51.902;12.836;2022-09-09T04:59:18;7.22;;;2.78;;
37299;SDS011;23184;51.902;12.836;2022-09-09T05:01:43;6.25;;;3.20;;
37299;SDS011;23184;51.902;12.836;2022-09-09T05:04:09;5.15;;;3.03;;
37299;SDS011;23184;51.902;12.836;2022-09-09T05:06:34;6.30;;;2.80;;
37299;SDS011;23184;51.902;12.836;2022-09-09T05:09:01;7.43;;;2.78;;
37299;SDS011;23184;51.902;12.836;2022-09-09T05:11:27;5.38;;;2.47;;
37299;SDS011;23184;51.902;12.836;2022-09-09T05:13:55;6.63;;;2.90;;
37299;SDS011;23184;51.902;12.836;2022-09-09T05:16:21;5.03;;;2.58;;
37299;SDS011;23184;51.902;12.836;2022-09-09T05:18:47;4.82;;;2.88;;
37299;SDS011;23184;51.902;12.836;2022-09-09T05:21:15;6.45;;;2.28;;
37299;SDS011;23184;51.902;12.836;2022-09-09T05:23:42;8.30;;;2.72;;
37299;SDS011;23184;51.902;12.836;2022-09-09T05:26:09;5.70;;;2.20;;
37299;SDS011;23184;51.902;12.836;2022-09-09T05:28:38;4.72;;;2.40;;
37299;SDS011;23184;51.902;12.836;2022-09-09T05:31:05;8.88;;;2.25;;
37299;SDS011;23184;51.902;12.836;2022-09-09T05:33:37;8.02;;;2.40;;
37299;SDS011;23184;51.902;12.836;2022-09-09T05:36:06;8.63;;;2.72;;
37299;SDS011;23184;51.902;12.836;2022-09-09T05:38:33;3.85;;;2.22;;
37299;SDS011;23184;51.902;12.836;2022-09-09T05:41:00;5.10;;;2.22;;
37299;SDS011;23184;51.902;12.836;2022-09-09T05:43:27;4.97;;;1.95;;
37299;SDS011;23184;51.902;12.836;2022-09-09T05:46:01;9.57;;;2.67;;
37299;SDS011;23184;51.902;12.836;2022-09-09T05:48:31;5.90;;;2.10;;
37299;SDS011;23184;51.902;12.836;2022-09-09T05:50:59;7.88;;;2.30;;
37299;SDS011;23184;51.902;12.836;2022-09-09T05:53:25;7.53;;;2.33;;
37299;SDS011;23184;51.902;12.836;2022-09-09T05:56:05;4.07;;;1.95;;
37299;SDS011;23184;51.902;12.836;2022-09-09T05:58:32;2.50;;;1.70;;
37299;SDS011;23184;51.902;12.836;2022-09-09T06:01:09;6.57;;;2.00;;
37299;SDS011;23184;51.902;12.836;2022-09-09T06:03:40;4.72;;;1.70;;
37299;SDS011;23184;51.902;12.836;2022-09-09T06:06:07;3.90;;;1.67;;
37299;SDS011;23184;51.902;12.836;2022-09-09T06:08:35;4.38;;;1.77;;
37299;SDS011;23184;51.902;12.836;2022-09-09T06:11:10;3.70;;;1.77;;
37299;SDS011;23184;51.902;12.836;2022-09-09T06:13:38;4.05;;;1.92;;
37299;SDS011;23184;51.902;12.836;2022-09-09T06:16:05;4.28;;;1.63;;
37299;SDS011;23184;51.902;12.836;2022-09-09T06:18:36;9.90;;;2.08;;
37299;SDS011;23184;51.902;12.836;2022-09-09T06:21:03;3.55;;;1.63;;
37299;SDS011;23184;51.902;12.836;2022-09-09T06:23:30;4.22;;;1.55;;
37299;SDS011;23184;51.902;12.836;2022-09-09T06:26:02;7.15;;;2.30;;
37299;SDS011;23184;51.902;12.836;2022-09-09T06:28:34;5.57;;;2.08;;
37299;SDS011;23184;51.902;12.836;2022-09-09T06:31:01;4.15;;;1.80;;
37299;SDS011;23184;51.902;12.836;2022-09-09T06:33:38;7.10;;;2.00;;
37299;SDS011;23184;51.902;12.836;2022-09-09T06:36:07;9.65;;;1.90;;
37299;SDS011;23184;51.902;12.836;2022-09-09T06:38:36;4.60;;;1.92;;
37299;SDS011;23184;51.902;12.836;2022-09-09T06:41:02;4.40;;;1.70;;
37299;SDS011;23184;51.902;12.836;2022-09-09T06:43:30;2.78;;;1.40;;
37299;SDS011;23184;51.902;12.836;2022-09-09T06:45:56;4.57;;;1.70;;
37299;SDS011;23184;51.902;12.836;2022-09-09T06:48:23;6.88;;;1.88;;
37299;SDS011;23184;51.902;12.836;2022-09-09T06:50:51;6.38;;;1.70;;
37299;SDS011;23184;51.902;12.836;2022-09-09T06:53:37;4.07;;;1.63;;
37299;SDS011;23184;51.902;12.836;2022-09-09T06:58:45;5.85;;;1.65;;
37299;SDS011;23184;51.902;12.836;2022-09-09T07:01:11;5.80;;;1.75;;
37299;SDS011;23184;51.902;12.836;2022-09-09T07:03:39;4.47;;;1.58;;
37299;SDS011;23184;51.902;12.836;2022-09-09T07:06:05;4.72;;;1.50;;
37299;SDS011;23184;51.902;12.836;2022-09-09T07:08:32;3.60;;;1.70;;
37299;SDS011;23184;51.902;12.836;2022-09-09T07:11:04;5.05;;;1.90;;
37299;SDS011;23184;51.902;12.836;2022-09-09T07:13:31;4.05;;;1.35;;
37299;SDS011;23184;51.902;12.836;2022-09-09T07:16:03;3.35;;;1.33;;
37299;SDS011;23184;51.902;12.836;2022-09-09T07:18:40;4.25;;;1.70;;
37299;SDS011;23184;51.902;12.836;2022-09-09T07:21:07;8.55;;;1.42;;
37299;SDS011;23184;51.902;12.836;2022-09-09T07:23:34;7.63;;;1.90;;
37299;SDS011;23184;51.902;12.836;2022-09-09T07:26:01;3.30;;;1.60;;
37299;SDS011;23184;51.902;12.836;2022-09-09T07:28:27;3.45;;;1.48;;
37299;SDS011;23184;51.902;12.836;2022-09-09T07:30:57;3.53;;;1.60;;
37299;SDS011;23184;51.902;12.836;2022-09-09T07:33:24;6.32;;;1.80;;
37299;SDS011;23184;51.902;12.836;2022-09-09T07:35:50;4.78;;;1.63;;
37299;SDS011;23184;51.902;12.836;2022-09-09T07:38:16;5.75;;;1.65;;
37299;SDS011;23184;51.902;12.836;2022-09-09T07:40:43;14.32;;;2.50;;
37299;SDS011;23184;51.902;12.836;2022-09-09T07:43:09;4.82;;;1.40;;
37299;SDS011;23184;51.902;12.836;2022-09-09T07:45:35;4.13;;;1.60;;
37299;SDS011;23184;51.902;12.836;2022-09-09T07:48:01;4.13;;;1.60;;
37299;SDS011;23184;51.902;12.836;2022-09-09T07:50:27;8.25;;;1.55;;
37299;SDS011;23184;51.902;12.836;2022-09-09T07:52:53;4.38;;;1.40;;
37299;SDS011;23184;51.902;12.836;2022-09-09T07:55:20;5.63;;;1.77;;
37299;SDS011;23184;51.902;12.836;2022-09-09T07:57:47;7.57;;;1.67;;
37299;SDS011;23184;51.902;12.836;2022-09-09T08:00:13;4.72;;;1.40;;
37299;SDS011;23184;51.902;12.836;2022-09-09T08:02:40;2.95;;;1.23;;
37299;SDS011;23184;51.902;12.836;2022-09-09T08:05:05;5.07;;;1.58;;
37299;SDS011;23184;51.902;12.836;2022-09-09T08:07:31;6.55;;;1.30;;
37299;SDS011;23184;51.902;12.836;2022-09-09T08:09:56;3.28;;;1.30;;
37299;SDS011;23184;51.902;12.836;2022-09-09T08:12:22;2.92;;;1.10;;
37299;SDS011;23184;51.902;12.836;2022-09-09T08:14:48;10.10;;;1.35;;
37299;SDS011;23184;51.902;12.836;2022-09-09T08:17:13;4.72;;;1.17;;
37299;SDS011;23184;51.902;12.836;2022-09-09T08:19:39;5.25;;;1.27;;
37299;SDS011;23184;51.902;12.836;2022-09-09T08:22:04;5.78;;;1.33;;
37299;SDS011;23184;51.902;12.836;2022-09-09T08:24:30;5.22;;;1.17;;
37299;SDS011;23184;51.902;12.836;2022-09-09T08:26:55;3.03;;;0.98;;
37299;SDS011;23184;51.902;12.836;2022-09-09T08:29:21;5.20;;;1.15;;
37299;SDS011;23184;51.902;12.836;2022-09-09T08:31:48;5.55;;;1.10;;
37299;SDS011;23184;51.902;12.836;2022-09-09T08:34:16;3.22;;;0.80;;
37299;SDS011;23184;51.902;12.836;2022-09-09T08:36:44;4.57;;;1.00;;
37299;SDS011;23184;51.902;12.836;2022-09-09T08:39:11;5.30;;;1.15;;
37299;SDS011;23184;51.902;12.836;2022-09-09T08:44:50;8.30;;;1.38;;
37299;SDS011;23184;51.902;12.836;2022-09-09T08:50:19;3.78;;;1.35;;
37299;SDS011;23184;51.902;12.836;2022-09-09T08:55:44;5.07;;;1.25;;
37299;SDS011;23184;51.902;12.836;2022-09-09T08:58:17;6.38;;;1.17;;
37299;SDS011;23184;51.902;12.836;2022-09-09T09:03:53;5.15;;;1.20;;
37299;SDS011;23184;51.902;12.836;2022-09-09T09:09:31;3.58;;;1.35;;
37299;SDS011;23184;51.902;12.836;2022-09-09T09:12:19;3.35;;;1.10;;
37299;SDS011;23184;51.902;12.836;2022-09-09T09:14:48;4.35;;;1.02;;
37299;SDS011;23184;51.902;12.836;2022-09-09T09:17:14;3.40;;;1.02;;
37299;SDS011;23184;51.902;12.836;2022-09-09T09:19:43;3.15;;;0.90;;
37299;SDS011;23184;51.902;12.836;2022-09-09T09:24:51;4.80;;;1.10;;
37299;SDS011;23184;51.902;12.836;2022-09-09T09:27:43;7.60;;;1.80;;
37299;SDS011;23184;51.902;12.836;2022-09-09T09:32:45;4.15;;;1.20;;
37299;SDS011;23184;51.902;12.836;2022-09-09T09:35:17;4.50;;;1.60;;
37299;SDS011;23184;51.902;12.836;2022-09-09T09:37:43;4.30;;;1.23;;
37299;SDS011;23184;51.902;12.836;2022-09-09T09:40:19;4.88;;;1.40;;
37299;SDS011;23184;51.902;12.836;2022-09-09T09:45:33;4.90;;;1.00;;
37299;SDS011;23184;51.902;12.836;2022-09-09T09:48:09;3.35;;;0.95;;
37299;SDS011;23184;51.902;12.836;2022-09-09T09:50:45;3.63;;;1.10;;
37299;SDS011;23184;51.902;12.836;2022-09-09T09:53:21;5.57;;;1.10;;
37299;SDS011;23184;51.902;12.836;2022-09-09T09:56:00;2.75;;;1.00;;
37299;SDS011;23184;51.902;12.836;2022-09-09T09:58:29;3.85;;;0.93;;
37299;SDS011;23184;51.902;12.836;2022-09-09T10:00:58;3.42;;;1.08;;
37299;SDS011;23184;51.902;12.836;2022-09-09T10:05:52;3.30;;;1.00;;
37299;SDS011;23184;51.902;12.836;2022-09-09T10:08:18;5.25;;;1.40;;
37299;SDS011;23184;51.902;12.836;2022-09-09T10:11:06;5.65;;;1.35;;
37299;SDS011;23184;51.902;12.836;2022-09-09T10:22:02;2.38;;;0.95;;
37299;SDS011;23184;51.902;12.836;2022-09-09T10:32:49;4.35;;;1.30;;
37299;SDS011;23184;51.902;12.836;2022-09-09T10:35:27;3.92;;;1.60;;
37299;SDS011;23184;51.902;12.836;2022-09-09T10:41:06;6.53;;;1.13;;
37299;SDS011;23184;51.902;12.836;2022-09-09T10:52:32;3.08;;;0.88;;
37299;SDS011;23184;51.902;12.836;2022-09-09T10:55:10;2.63;;;1.05;;
37299;SDS011;23184;51.902;12.836;2022-09-09T10:57:51;2.63;;;0.98;;
37299;SDS011;23184;51.902;12.836;2022-09-09T11:00:19;4.70;;;1.10;;
37299;SDS011;23184;51.902;12.836;2022-09-09T11:02:46;4.00;;;1.20;;
37299;SDS011;23184;51.902;12.836;2022-09-09T11:05:44;2.72;;;1.10;;
37299;SDS011;23184;51.902;12.836;2022-09-09T11:08:31;2.63;;;1.10;;
37299;SDS011;23184;51.902;12.836;2022-09-09T11:11:02;4.30;;;0.90;;
37299;SDS011;23184;51.902;12.836;2022-09-09T11:16:15;5.38;;;1.30;;
37299;SDS011;23184;51.902;12.836;2022-09-09T11:18:48;5.57;;;1.20;;
37299;SDS011;23184;51.902;12.836;2022-09-09T11:21:19;5.55;;;1.10;;
37299;SDS011;23184;51.902;12.836;2022-09-09T11:23:50;4.70;;;0.90;;
37299;SDS011;23184;51.902;12.836;2022-09-09T11:26:40;5.85;;;0.90;;
37299;SDS011;23184;51.902;12.836;2022-09-09T11:29:17;4.90;;;1.45;;
37299;SDS011;23184;51.902;12.836;2022-09-09T11:32:20;4.88;;;1.10;;
37299;SDS011;23184;51.902;12.836;2022-09-09T11:40:21;5.18;;;1.08;;
37299;SDS011;23184;51.902;12.836;2022-09-09T11:42:48;5.18;;;1.05;;
37299;SDS011;23184;51.902;12.836;2022-09-09T11:45:26;5.65;;;1.10;;
37299;SDS011;23184;51.902;12.836;2022-09-09T11:47:55;4.63;;;1.23;;
37299;SDS011;23184;51.902;12.836;2022-09-09T11:55:38;5.60;;;0.90;;
37299;SDS011;23184;51.902;12.836;2022-09-09T12:00:40;4.75;;;1.00;;
37299;SDS011;23184;51.902;12.836;2022-09-09T12:03:31;5.60;;;1.00;;
37299;SDS011;23184;51.902;12.836;2022-09-09T12:06:09;5.28;;;1.02;;
37299;SDS011;23184;51.902;12.836;2022-09-09T12:08:36;4.35;;;1.10;;
37299;SDS011;23184;51.902;12.836;2022-09-09T12:11:05;4.97;;;1.15;;
37299;SDS011;23184;51.902;12.836;2022-09-09T12:13:31;4.80;;;1.27;;
37299;SDS011;23184;51.902;12.836;2022-09-09T12:15:58;4.95;;;1.10;;
37299;SDS011;23184;51.902;12.836;2022-09-09T12:18:25;6.05;;;1.80;;
37299;SDS011;23184;51.902;12.836;2022-09-09T12:20:59;4.65;;;0.88;;
37299;SDS011;23184;51.902;12.836;2022-09-09T12:23:37;3.92;;;1.00;;
37299;SDS011;23184;51.902;12.836;2022-09-09T12:26:16;5.18;;;1.23;;
37299;SDS011;23184;51.902;12.836;2022-09-09T12:36:58;6.18;;;1.30;;
37299;SDS011;23184;51.902;12.836;2022-09-09T12:42:19;2.92;;;0.95;;
37299;SDS011;23184;51.902;12.836;2022-09-09T12:44:52;5.53;;;0.98;;
37299;SDS011;23184;51.902;12.836;2022-09-09T12:47:20;5.35;;;0.90;;
37299;SDS011;23184;51.902;12.836;2022-09-09T12:49:49;5.82;;;1.48;;
37299;SDS011;23184;51.902;12.836;2022-09-09T12:52:18;3.22;;;1.00;;
37299;SDS011;23184;51.902;12.836;2022-09-09T12:55:04;3.95;;;1.38;;
37299;SDS011;23184;51.902;12.836;2022-09-09T12:57:33;5.38;;;0.90;;
37299;SDS011;23184;51.902;12.836;2022-09-09T13:00:05;3.85;;;0.95;;
37299;SDS011;23184;51.902;12.836;2022-09-09T13:02:34;2.97;;;0.90;;
37299;SDS011;23184;51.902;12.836;2022-09-09T13:05:12;4.28;;;1.45;;
37299;SDS011;23184;51.902;12.836;2022-09-09T13:07:41;8.73;;;1.60;;
37299;SDS011;23184;51.902;12.836;2022-09-09T13:10:10;12.13;;;1.52;;
37299;SDS011;23184;51.902;12.836;2022-09-09T13:12:36;17.05;;;2.05;;
37299;SDS011;23184;51.902;12.836;2022-09-09T13:15:02;11.32;;;1.30;;
37299;SDS011;23184;51.902;12.836;2022-09-09T13:17:28;18.38;;;3.80;;
37299;SDS011;23184;51.902;12.836;2022-09-09T13:19:54;17.08;;;2.60;;
37299;SDS011;23184;51.902;12.836;2022-09-09T13:24:58;14.43;;;2.17;;
37299;SDS011;23184;51.902;12.836;2022-09-09T13:27:32;14.60;;;2.38;;
37299;SDS011;23184;51.902;12.836;2022-09-09T13:29:59;14.30;;;2.03;;
37299;SDS011;23184;51.902;12.836;2022-09-09T13:32:25;8.02;;;1.40;;
37299;SDS011;23184;51.902;12.836;2022-09-09T13:34:56;8.32;;;1.42;;
37299;SDS011;23184;51.902;12.836;2022-09-09T13:37:24;5.95;;;1.50;;
37299;SDS011;23184;51.902;12.836;2022-09-09T13:40:02;4.53;;;1.35;;
37299;SDS011;23184;51.902;12.836;2022-09-09T13:42:32;6.93;;;1.00;;
37299;SDS011;23184;51.902;12.836;2022-09-09T13:45:00;3.85;;;1.08;;
37299;SDS011;23184;51.902;12.836;2022-09-09T13:47:29;12.27;;;1.85;;
37299;SDS011;23184;51.902;12.836;2022-09-09T13:49:57;6.63;;;1.50;;
37299;SDS011;23184;51.902;12.836;2022-09-09T13:52:22;6.93;;;1.33;;
37299;SDS011;23184;51.902;12.836;2022-09-09T13:54:49;10.75;;;1.42;;
37299;SDS011;23184;51.902;12.836;2022-09-09T13:57:19;9.75;;;1.42;;
37299;SDS011;23184;51.902;12.836;2022-09-09T13:59:47;3.17;;;1.20;;
37299;SDS011;23184;51.902;12.836;2022-09-09T14:02:14;7.25;;;1.33;;
37299;SDS011;23184;51.902;12.836;2022-09-09T14:04:41;7.25;;;1.50;;
37299;SDS011;23184;51.902;12.836;2022-09-09T14:07:09;7.65;;;1.60;;
37299;SDS011;23184;51.902;12.836;2022-09-09T14:09:37;6.05;;;1.55;;
37299;SDS011;23184;51.902;12.836;2022-09-09T14:12:03;7.30;;;1.50;;
37299;SDS011;23184;51.902;12.836;2022-09-09T14:14:29;4.65;;;1.00;;
37299;SDS011;23184;51.902;12.836;2022-09-09T14:16:55;7.72;;;1.30;;
37299;SDS011;23184;51.902;12.836;2022-09-09T14:19:20;6.13;;;1.08;;
37299;SDS011;23184;51.902;12.836;2022-09-09T14:21:46;4.13;;;1.13;;
37299;SDS011;23184;51.902;12.836;2022-09-09T14:24:11;9.70;;;1.40;;
37299;SDS011;23184;51.902;12.836;2022-09-09T14:26:37;6.30;;;1.17;;
37299;SDS011;23184;51.902;12.836;2022-09-09T14:29:03;6.35;;;1.48;;
37299;SDS011;23184;51.902;12.836;2022-09-09T14:31:28;3.92;;;1.10;;
37299;SDS011;23184;51.902;12.836;2022-09-09T14:33:54;7.65;;;1.15;;
37299;SDS011;23184;51.902;12.836;2022-09-09T14:36:19;8.35;;;1.20;;
37299;SDS011;23184;51.902;12.836;2022-09-09T14:38:45;4.90;;;1.20;;
37299;SDS011;23184;51.902;12.836;2022-09-09T14:41:11;2.03;;;0.80;;
37299;SDS011;23184;51.902;12.836;2022-09-09T14:43:39;3.60;;;0.90;;
37299;SDS011;23184;51.902;12.836;2022-09-09T14:46:08;4.68;;;0.80;;
37299;SDS011;23184;51.902;12.836;2022-09-09T14:48:36;4.10;;;1.00;;
37299;SDS011;23184;51.902;12.836;2022-09-09T14:51:05;4.18;;;1.23;;
37299;SDS011;23184;51.902;12.836;2022-09-09T14:53:40;5.13;;;1.05;;
37299;SDS011;23184;51.902;12.836;2022-09-09T14:56:10;7.15;;;1.30;;
37299;SDS011;23184;51.902;12.836;2022-09-09T14:58:38;2.63;;;0.90;;
37299;SDS011;23184;51.902;12.836;2022-09-09T15:01:14;5.07;;;1.00;;
37299;SDS011;23184;51.902;12.836;2022-09-09T15:03:41;2.88;;;0.90;;
37299;SDS011;23184;51.902;12.836;2022-09-09T15:06:13;3.03;;;0.93;;
37299;SDS011;23184;51.902;12.836;2022-09-09T15:08:43;2.72;;;0.88;;
37299;SDS011;23184;51.902;12.836;2022-09-09T15:11:10;2.97;;;0.98;;
37299;SDS011;23184;51.902;12.836;2022-09-09T15:13:37;3.60;;;1.25;;
37299;SDS011;23184;51.902;12.836;2022-09-09T15:16:04;3.08;;;0.90;;
37299;SDS011;23184;51.902;12.836;2022-09-09T15:18:30;4.18;;;1.08;;
37299;SDS011;23184;51.902;12.836;2022-09-09T15:20:57;3.67;;;0.90;;
37299;SDS011;23184;51.902;12.836;2022-09-09T15:23:24;5.43;;;0.93;;
37299;SDS011;23184;51.902;12.836;2022-09-09T15:25:53;6.95;;;1.10;;
37299;SDS011;23184;51.902;12.836;2022-09-09T15:28:20;8.25;;;1.63;;
37299;SDS011;23184;51.902;12.836;2022-09-09T15:30:49;6.63;;;1.10;;
37299;SDS011;23184;51.902;12.836;2022-09-09T15:33:17;12.20;;;1.88;;
37299;SDS011;23184;51.902;12.836;2022-09-09T15:35:43;8.88;;;1.92;;
37299;SDS011;23184;51.902;12.836;2022-09-09T15:38:08;8.95;;;1.80;;
37299;SDS011;23184;51.902;12.836;2022-09-09T15:40:34;15.40;;;1.90;;
37299;SDS011;23184;51.902;12.836;2022-09-09T15:42:59;6.63;;;1.60;;
37299;SDS011;23184;51.902;12.836;2022-09-09T15:45:25;10.30;;;1.50;;
37299;SDS011;23184;51.902;12.836;2022-09-09T15:47:51;8.18;;;1.55;;
37299;SDS011;23184;51.902;12.836;2022-09-09T15:50:17;12.32;;;1.73;;
37299;SDS011;23184;51.902;12.836;2022-09-09T15:52:42;5.75;;;1.45;;
37299;SDS011;23184;51.902;12.836;2022-09-09T15:55:08;9.75;;;1.45;;
37299;SDS011;23184;51.902;12.836;2022-09-09T15:57:33;5.32;;;1.27;;
37299;SDS011;23184;51.902;12.836;2022-09-09T15:59:59;4.30;;;0.77;;
37299;SDS011;23184;51.902;12.836;2022-09-09T16:02:25;5.68;;;1.17;;
37299;SDS011;23184;51.902;12.836;2022-09-09T16:04:51;6.55;;;1.20;;
37299;SDS011;23184;51.902;12.836;2022-09-09T16:07:17;5.80;;;0.98;;
37299;SDS011;23184;51.902;12.836;2022-09-09T16:09:42;4.75;;;1.20;;
37299;SDS011;23184;51.902;12.836;2022-09-09T16:12:08;5.65;;;1.38;;
37299;SDS011;23184;51.902;12.836;2022-09-09T16:14:38;6.50;;;1.30;;
37299;SDS011;23184;51.902;12.836;2022-09-09T16:17:04;6.90;;;1.45;;
37299;SDS011;23184;51.902;12.836;2022-09-09T16:19:30;5.45;;;1.27;;
37299;SDS011;23184;51.902;12.836;2022-09-09T16:21:56;11.52;;;1.55;;
37299;SDS011;23184;51.902;12.836;2022-09-09T16:24:22;10.07;;;1.75;;
37299;SDS011;23184;51.902;12.836;2022-09-09T16:26:49;8.23;;;1.83;;
37299;SDS011;23184;51.902;12.836;2022-09-09T16:29:17;5.07;;;1.48;;
37299;SDS011;23184;51.902;12.836;2022-09-09T16:31:44;8.90;;;1.48;;
37299;SDS011;23184;51.902;12.836;2022-09-09T16:34:11;6.85;;;1.80;;
37299;SDS011;23184;51.902;12.836;2022-09-09T16:36:38;6.65;;;1.38;;
37299;SDS011;23184;51.902;12.836;2022-09-09T16:39:06;4.57;;;1.30;;
37299;SDS011;23184;51.902;12.836;2022-09-09T16:41:36;3.70;;;1.27;;
37299;SDS011;23184;51.902;12.836;2022-09-09T16:44:03;5.65;;;1.80;;
37299;SDS011;23184;51.902;12.836;2022-09-09T16:46:31;11.57;;;2.22;;
37299;SDS011;23184;51.902;12.836;2022-09-09T16:48:59;5.82;;;1.65;;
37299;SDS011;23184;51.902;12.836;2022-09-09T16:51:30;5.70;;;1.55;;
37299;SDS011;23184;51.902;12.836;2022-09-09T16:54:00;3.38;;;1.50;;
37299;SDS011;23184;51.902;12.836;2022-09-09T16:56:28;3.58;;;1.50;;
37299;SDS011;23184;51.902;12.836;2022-09-09T16:58:58;4.18;;;1.80;;